createdAt,value
2023-02-22T00:01:19.324Z,4.47
2023-02-22T00:03:50.683Z,4.28
2023-02-22T00:06:20.868Z,4.95
2023-02-22T00:11:16.956Z,4.03
2023-02-22T00:13:45.153Z,5.05
2023-02-22T00:16:21.890Z,4.75
2023-02-22T00:18:49.406Z,4.43
2023-02-22T00:21:17.931Z,6.25
2023-02-22T00:23:46.816Z,5.80
2023-02-22T00:26:18.348Z,6.85
2023-02-22T00:28:48.133Z,6.50
2023-02-22T00:31:15.711Z,7.68
2023-02-22T00:33:43.414Z,6.90
2023-02-22T00:36:12.567Z,7.93
2023-02-22T00:38:40.686Z,6.63
2023-02-22T00:41:08.841Z,7.70
2023-02-22T00:43:35.981Z,5.45
2023-02-22T00:46:03.251Z,5.10
2023-02-22T00:48:30.088Z,5.55
2023-02-22T00:50:56.937Z,5.88
2023-02-22T00:53:25.693Z,5.47
2023-02-22T00:55:53.116Z,5.60
2023-02-22T00:58:20.860Z,5.35
2023-02-22T01:00:48.667Z,4.72
2023-02-22T01:03:18.964Z,4.95
2023-02-22T01:05:47.298Z,4.38
2023-02-22T01:08:16.324Z,5.93
2023-02-22T01:10:43.884Z,5.80
2023-02-22T01:13:12.901Z,5.35
2023-02-22T01:15:42.358Z,4.70
2023-02-22T01:18:09.733Z,4.75
2023-02-22T01:20:36.942Z,5.13
2023-02-22T01:23:07.073Z,5.35
2023-02-22T01:25:35.636Z,4.25
2023-02-22T01:28:05.566Z,5.05
2023-02-22T01:30:34.637Z,3.88
2023-02-22T01:33:03.482Z,5.50
2023-02-22T01:35:36.198Z,4.47
2023-02-22T01:38:03.472Z,5.30
2023-02-22T01:40:34.645Z,5.22
2023-02-22T01:43:14.538Z,5.40
2023-02-22T01:46:01.587Z,4.85
2023-02-22T01:48:34.044Z,4.00
2023-02-22T01:51:14.718Z,4.15
2023-02-22T01:54:18.059Z,4.57
2023-02-22T01:56:54.260Z,4.65
2023-02-22T01:59:22.613Z,4.47
2023-02-22T02:01:49.630Z,4.30
2023-02-22T02:04:25.557Z,5.25
2023-02-22T02:06:58.407Z,5.28
2023-02-22T02:09:32.987Z,4.90
2023-02-22T02:12:02.644Z,6.40
2023-02-22T02:14:32.030Z,4.82
2023-02-22T02:17:01.555Z,5.00
2023-02-22T02:20:07.293Z,4.70
2023-02-22T02:23:10.402Z,4.78
2023-02-22T02:26:05.214Z,4.70
2023-02-22T02:28:50.930Z,4.75
2023-02-22T02:31:41.995Z,4.90
2023-02-22T02:34:40.960Z,4.70
2023-02-22T02:37:57.827Z,4.45
2023-02-22T02:40:49.357Z,5.35
2023-02-22T02:43:42.316Z,5.80
2023-02-22T02:46:26.828Z,5.95
2023-02-22T02:49:01.219Z,6.68
2023-02-22T02:51:34.011Z,6.55
2023-02-22T02:54:01.963Z,6.65
2023-02-22T02:56:29.680Z,5.50
2023-02-22T02:58:56.884Z,7.05
2023-02-22T03:01:42.684Z,6.93
2023-02-22T03:04:23.636Z,7.43
2023-02-22T03:06:53.509Z,7.03
2023-02-22T03:09:40.024Z,6.90
2023-02-22T03:12:28.224Z,6.47
2023-02-22T03:15:13.351Z,7.40
2023-02-22T03:17:54.206Z,7.72
2023-02-22T03:20:58.895Z,7.07
2023-02-22T03:23:51.055Z,6.90
2023-02-22T03:26:25.389Z,7.13
2023-02-22T03:28:56.549Z,5.90
2023-02-22T03:31:31.470Z,5.85
2023-02-22T03:34:04.980Z,6.40
2023-02-22T03:36:39.172Z,6.95
2023-02-22T03:39:10.647Z,6.25
2023-02-22T03:41:39.937Z,7.03
2023-02-22T03:44:12.140Z,6.70
2023-02-22T03:46:41.237Z,7.20
2023-02-22T03:49:16.931Z,8.60
2023-02-22T03:51:44.060Z,7.20
2023-02-22T03:54:16.473Z,7.70
2023-02-22T03:56:53.367Z,7.85
2023-02-22T03:59:27.516Z,7.97
2023-02-22T04:01:55.535Z,6.60
2023-02-22T04:04:23.810Z,6.78
2023-02-22T04:06:53.929Z,6.83
2023-02-22T04:11:48.626Z,6.72
2023-02-22T04:14:15.660Z,6.85
2023-02-22T04:16:42.704Z,8.80
2023-02-22T04:19:10.674Z,7.78
2023-02-22T04:21:39.099Z,7.03
2023-02-22T04:24:10.233Z,7.78
2023-02-22T04:26:37.563Z,7.25
2023-02-22T04:29:06.260Z,8.02
2023-02-22T04:31:38.848Z,6.80
2023-02-22T04:34:06.572Z,8.15
2023-02-22T04:36:36.879Z,7.80
2023-02-22T04:39:05.347Z,8.00
2023-02-22T04:41:33.360Z,10.25
2023-02-22T04:44:00.534Z,8.30
2023-02-22T04:46:28.301Z,8.40
2023-02-22T04:48:55.595Z,7.55
2023-02-22T04:51:25.927Z,7.93
2023-02-22T04:54:07.272Z,8.00
2023-02-22T04:56:35.696Z,8.38
2023-02-22T04:59:02.703Z,8.02
2023-02-22T05:01:34.105Z,6.97
2023-02-22T05:04:06.432Z,7.32
2023-02-22T05:06:33.392Z,6.53
2023-02-22T05:09:00.219Z,6.88
2023-02-22T05:11:27.048Z,7.43
2023-02-22T05:13:53.774Z,9.43
2023-02-22T05:16:20.546Z,9.70
2023-02-22T05:18:47.424Z,9.23
2023-02-22T05:21:14.410Z,10.15
2023-02-22T05:23:41.715Z,10.65
2023-02-22T05:26:10.744Z,12.13
2023-02-22T05:28:38.405Z,11.48
2023-02-22T05:31:07.458Z,11.27
2023-02-22T05:33:34.657Z,10.13
2023-02-22T05:36:02.089Z,10.27
2023-02-22T05:38:29.011Z,10.30
2023-02-22T05:40:56.951Z,9.60
2023-02-22T05:43:23.728Z,9.82
2023-02-22T05:45:50.492Z,9.60
2023-02-22T05:48:17.236Z,9.07
2023-02-22T05:50:44.131Z,9.95
2023-02-22T05:53:10.986Z,9.95
2023-02-22T05:55:37.770Z,10.23
2023-02-22T05:58:05.920Z,10.80
2023-02-22T06:00:33.954Z,10.88
2023-02-22T06:03:06.573Z,9.73
2023-02-22T06:05:34.049Z,10.27
2023-02-22T06:08:01.583Z,10.32
2023-02-22T06:10:29.059Z,9.90
2023-02-22T06:12:57.032Z,9.63
2023-02-22T06:15:25.643Z,9.57
2023-02-22T06:17:54.505Z,9.10
2023-02-22T06:20:23.223Z,9.50
2023-02-22T06:22:51.581Z,8.95
2023-02-22T06:25:20.678Z,8.82
2023-02-22T06:27:47.557Z,9.38
2023-02-22T06:30:15.925Z,9.82
2023-02-22T06:32:42.688Z,10.48
2023-02-22T06:35:10.088Z,9.43
2023-02-22T06:37:36.870Z,11.13
2023-02-22T06:40:05.684Z,11.75
2023-02-22T06:42:33.041Z,11.87
2023-02-22T06:45:00.042Z,10.80
2023-02-22T06:47:27.042Z,11.10
2023-02-22T06:49:54.757Z,10.90
2023-02-22T06:52:21.855Z,10.57
2023-02-22T06:54:49.111Z,10.38
2023-02-22T06:57:16.084Z,10.38
2023-02-22T06:59:43.301Z,11.50
2023-02-22T07:02:11.751Z,11.70
2023-02-22T07:04:39.993Z,11.07
2023-02-22T07:07:07.739Z,10.43
2023-02-22T07:09:34.818Z,14.05
2023-02-22T07:12:01.657Z,14.48
2023-02-22T07:14:28.583Z,12.95
2023-02-22T07:16:55.297Z,13.25
2023-02-22T07:19:22.025Z,12.88
2023-02-22T07:21:48.725Z,12.60
2023-02-22T07:24:15.398Z,11.40
2023-02-22T07:26:42.970Z,10.85
2023-02-22T07:29:11.384Z,10.18
2023-02-22T07:31:38.944Z,11.32
2023-02-22T07:34:06.116Z,9.82
2023-02-22T07:36:32.792Z,10.20
2023-02-22T07:38:59.572Z,9.32
2023-02-22T07:41:26.475Z,10.38
2023-02-22T07:43:53.422Z,9.18
2023-02-22T07:46:20.149Z,9.70
2023-02-22T07:48:46.881Z,8.82
2023-02-22T07:51:16.728Z,9.20
2023-02-22T07:56:10.459Z,10.65
2023-02-22T07:58:37.494Z,9.48
2023-02-22T08:01:04.795Z,9.45
2023-02-22T08:03:38.089Z,9.45
2023-02-22T08:06:07.125Z,7.65
2023-02-22T08:08:34.700Z,7.00
2023-02-22T08:11:01.951Z,6.43
2023-02-22T08:13:28.935Z,6.75
2023-02-22T08:15:56.183Z,6.70
2023-02-22T08:18:24.887Z,7.03
2023-02-22T08:20:53.229Z,8.85
2023-02-22T08:23:22.647Z,8.98
2023-02-22T08:25:49.512Z,8.00
2023-02-22T08:28:19.940Z,7.43
2023-02-22T08:30:46.765Z,7.00
2023-02-22T08:33:16.960Z,8.00
2023-02-22T08:35:43.868Z,7.13
2023-02-22T08:38:31.359Z,7.35
2023-02-22T08:40:58.618Z,7.60
2023-02-22T08:43:25.745Z,7.07
2023-02-22T08:45:54.489Z,6.70
2023-02-22T08:48:22.993Z,7.03
2023-02-22T08:50:50.004Z,6.50
2023-02-22T08:53:17.017Z,6.50
2023-02-22T08:55:44.338Z,6.65
2023-02-22T08:58:12.410Z,6.50
2023-02-22T09:00:40.789Z,6.45
2023-02-22T09:03:10.734Z,6.68
2023-02-22T09:05:37.576Z,5.70
2023-02-22T09:08:05.306Z,5.95
2023-02-22T09:10:33.967Z,5.25
2023-02-22T09:13:01.271Z,6.28
2023-02-22T09:15:29.001Z,6.80
2023-02-22T09:17:56.318Z,6.45
2023-02-22T09:20:24.258Z,5.95
2023-02-22T09:22:51.362Z,6.68
2023-02-22T09:25:20.763Z,5.40
2023-02-22T09:27:52.835Z,6.35
2023-02-22T09:30:32.509Z,6.82
2023-02-22T09:33:11.630Z,6.82
2023-02-22T09:35:42.478Z,7.73
2023-02-22T09:38:10.696Z,7.78
2023-02-22T09:40:45.226Z,8.70
2023-02-22T09:43:41.339Z,9.13
2023-02-22T09:46:13.769Z,8.23
2023-02-22T09:49:17.216Z,8.63
2023-02-22T09:51:56.187Z,8.25
2023-02-22T09:54:28.707Z,8.93
2023-02-22T09:57:03.781Z,9.88
2023-02-22T09:59:37.496Z,9.30
2023-02-22T10:02:14.405Z,10.55
2023-02-22T10:04:47.850Z,9.90
2023-02-22T10:07:37.119Z,11.70
2023-02-22T10:10:06.703Z,11.52
2023-02-22T10:13:00.012Z,11.65
2023-02-22T10:15:34.924Z,10.85
2023-02-22T10:18:26.610Z,12.00
2023-02-22T10:21:12.140Z,12.38
2023-02-22T10:24:08.002Z,10.80
2023-02-22T10:26:37.248Z,11.48
2023-02-22T10:29:11.020Z,10.35
2023-02-22T10:31:43.028Z,11.07
2023-02-22T10:34:21.874Z,10.13
2023-02-22T10:36:54.398Z,6.65
2023-02-22T10:39:32.253Z,5.00
2023-02-22T10:42:06.224Z,5.70
2023-02-22T10:44:37.621Z,5.82
2023-02-22T10:47:08.296Z,5.60
2023-02-22T10:49:40.630Z,6.25
2023-02-22T10:52:23.833Z,4.70
2023-02-22T10:54:52.022Z,4.05
2023-02-22T10:57:50.705Z,4.38
2023-02-22T11:00:20.471Z,4.90
2023-02-22T11:03:00.197Z,4.65
2023-02-22T11:05:39.255Z,3.60
2023-02-22T11:08:21.288Z,3.80
2023-02-22T11:10:53.961Z,4.00
2023-02-22T11:13:27.056Z,4.05
2023-02-22T11:15:55.977Z,4.90
2023-02-22T11:18:26.842Z,6.05
2023-02-22T11:21:10.281Z,5.80
2023-02-22T11:23:39.299Z,5.28
2023-02-22T11:26:14.358Z,5.43
2023-02-22T11:28:51.145Z,4.95
2023-02-22T11:31:23.832Z,5.45
2023-02-22T11:36:37.362Z,5.43
2023-02-22T11:39:11.578Z,5.53
2023-02-22T11:41:38.475Z,5.35
2023-02-22T11:44:30.984Z,4.82
2023-02-22T11:47:06.864Z,4.63
2023-02-22T11:49:39.591Z,4.93
2023-02-22T11:52:28.651Z,4.60
2023-02-22T11:55:01.876Z,5.72
2023-02-22T11:57:42.520Z,4.80
2023-02-22T12:00:27.384Z,4.88
2023-02-22T12:03:18.348Z,4.60
2023-02-22T12:05:45.323Z,4.88
2023-02-22T12:08:28.302Z,5.57
2023-02-22T12:11:06.361Z,4.88
2023-02-22T12:14:25.356Z,4.95
2023-02-22T12:17:23.501Z,4.47
2023-02-22T12:19:57.049Z,4.05
2023-02-22T12:22:34.645Z,4.65
2023-02-22T12:25:21.532Z,4.22
2023-02-22T12:28:00.462Z,4.38
2023-02-22T12:30:35.357Z,3.70
2023-02-22T12:33:14.158Z,3.75
2023-02-22T12:35:49.428Z,4.00
2023-02-22T12:38:23.656Z,3.30
2023-02-22T12:41:00.030Z,3.28
2023-02-22T12:43:36.620Z,3.22
2023-02-22T12:46:23.424Z,2.78
2023-02-22T12:49:08.456Z,3.42
2023-02-22T12:51:53.877Z,2.75
2023-02-22T12:54:32.290Z,2.97
2023-02-22T12:57:23.950Z,3.10
2023-02-22T12:59:56.205Z,2.60
2023-02-22T13:02:30.977Z,2.55
2023-02-22T13:04:58.067Z,2.45
2023-02-22T13:07:51.971Z,2.42
2023-02-22T13:10:43.305Z,2.70
2023-02-22T13:13:32.038Z,2.25
2023-02-22T13:16:36.184Z,2.40
2023-02-22T13:19:09.076Z,3.30
2023-02-22T13:21:45.350Z,3.33
2023-02-22T13:24:52.418Z,3.35
2023-02-22T13:27:38.221Z,3.38
2023-02-22T13:30:14.504Z,2.95
2023-02-22T13:32:59.503Z,3.10
2023-02-22T13:35:48.733Z,2.85
2023-02-22T13:38:30.700Z,3.05
2023-02-22T13:41:30.980Z,3.42
2023-02-22T13:44:06.871Z,3.72
2023-02-22T13:46:59.140Z,3.35
2023-02-22T13:49:44.162Z,3.08
2023-02-22T13:52:17.230Z,3.15
2023-02-22T13:54:54.545Z,4.00
2023-02-22T13:57:48.250Z,4.13
2023-02-22T14:00:15.004Z,3.60
2023-02-22T14:03:03.273Z,2.78
2023-02-22T14:05:43.161Z,2.35
2023-02-22T14:08:19.410Z,3.10
2023-02-22T14:10:52.620Z,2.88
2023-02-22T14:13:26.800Z,2.92
2023-02-22T14:16:02.758Z,3.25
2023-02-22T14:18:42.111Z,2.97
2023-02-22T14:21:15.932Z,2.97
2023-02-22T14:23:45.746Z,3.28
2023-02-22T14:26:34.722Z,3.40
2023-02-22T14:29:02.856Z,3.37
2023-02-22T14:31:37.519Z,2.75
2023-02-22T14:34:17.468Z,3.00
2023-02-22T14:37:05.199Z,3.25
2023-02-22T14:39:40.085Z,3.47
2023-02-22T14:42:27.336Z,3.10
2023-02-22T14:45:12.166Z,3.47
2023-02-22T14:47:49.705Z,3.42
2023-02-22T14:50:29.050Z,2.92
2023-02-22T14:53:03.573Z,3.10
2023-02-22T14:55:34.078Z,3.00
2023-02-22T14:58:09.768Z,3.22
2023-02-22T15:00:41.249Z,2.97
2023-02-22T15:03:37.500Z,2.92
2023-02-22T15:06:28.914Z,2.88
2023-02-22T15:09:29.076Z,2.85
2023-02-22T15:12:02.978Z,2.85
2023-02-22T15:14:33.097Z,3.10
2023-02-22T15:17:04.325Z,2.80
2023-02-22T15:19:34.060Z,3.30
2023-02-22T15:22:02.149Z,2.55
2023-02-22T15:24:32.808Z,3.40
2023-02-22T15:27:06.135Z,3.00
2023-02-22T15:29:39.556Z,2.70
2023-02-22T15:32:34.273Z,2.53
2023-02-22T15:35:19.282Z,2.60
2023-02-22T15:37:47.543Z,2.70
2023-02-22T15:40:18.676Z,3.05
2023-02-22T15:42:53.108Z,2.90
2023-02-22T15:45:22.419Z,3.00
2023-02-22T15:47:49.792Z,2.78
2023-02-22T15:50:33.442Z,3.03
2023-02-22T15:53:07.627Z,2.92
2023-02-22T15:55:38.022Z,2.60
2023-02-22T15:58:19.730Z,3.00
2023-02-22T16:01:05.547Z,2.83
2023-02-22T16:03:44.847Z,2.70
2023-02-22T16:06:17.403Z,2.22
2023-02-22T16:08:55.208Z,3.00
2023-02-22T16:11:45.834Z,2.53
2023-02-22T16:14:42.753Z,2.20
2023-02-22T16:17:31.181Z,2.53
2023-02-22T16:20:21.869Z,2.65
2023-02-22T16:22:49.823Z,2.88
2023-02-22T16:25:19.447Z,2.92
2023-02-22T16:27:52.854Z,3.78
2023-02-22T16:30:34.738Z,3.88
2023-02-22T16:33:05.816Z,3.28
2023-02-22T16:35:35.587Z,3.38
2023-02-22T16:38:04.861Z,3.53
2023-02-22T16:40:39.030Z,4.53
2023-02-22T16:43:20.063Z,4.68
2023-02-22T16:45:47.133Z,4.68
2023-02-22T16:48:25.557Z,4.85
2023-02-22T16:50:55.054Z,5.57
2023-02-22T16:53:25.206Z,5.93
2023-02-22T16:55:57.690Z,5.13
2023-02-22T16:58:28.367Z,5.35
2023-02-22T17:00:57.428Z,4.63
2023-02-22T17:03:25.829Z,4.95
2023-02-22T17:05:53.198Z,4.88
2023-02-22T17:08:19.924Z,4.57
2023-02-22T17:10:46.858Z,4.93
2023-02-22T17:13:23.595Z,5.13
2023-02-22T17:15:51.932Z,4.50
2023-02-22T17:18:22.993Z,4.60
2023-02-22T17:20:51.830Z,5.07
2023-02-22T17:23:19.970Z,5.32
2023-02-22T17:26:07.195Z,4.70
2023-02-22T17:28:34.010Z,4.30
2023-02-22T17:31:01.642Z,4.72
2023-02-22T17:33:33.076Z,4.97
2023-02-22T17:36:04.110Z,4.07
2023-02-22T17:38:31.247Z,3.72
2023-02-22T17:40:59.435Z,4.07
2023-02-22T17:43:27.948Z,4.07
2023-02-22T17:45:55.905Z,4.20
2023-02-22T17:48:24.315Z,4.00
2023-02-22T17:50:53.085Z,4.85
2023-02-22T17:53:25.531Z,4.88
2023-02-22T17:55:53.021Z,5.05
2023-02-22T17:58:20.420Z,4.85
2023-02-22T18:00:49.756Z,5.15
2023-02-22T18:03:25.271Z,4.68
2023-02-22T18:05:57.727Z,5.10
2023-02-22T18:08:26.782Z,4.78
2023-02-22T18:10:56.543Z,5.28
2023-02-22T18:13:26.993Z,5.30
2023-02-22T18:15:57.587Z,4.82
2023-02-22T18:18:24.330Z,5.05
2023-02-22T18:20:59.579Z,4.88
2023-02-22T18:23:28.444Z,5.55
2023-02-22T18:26:09.794Z,5.40
2023-02-22T18:28:38.026Z,5.47
2023-02-22T18:31:14.571Z,5.18
2023-02-22T18:33:46.596Z,5.65
2023-02-22T18:36:15.634Z,5.20
2023-02-22T18:38:43.640Z,5.28
2023-02-22T18:41:16.164Z,5.43
2023-02-22T18:43:43.523Z,5.00
2023-02-22T18:46:14.999Z,4.93
2023-02-22T18:48:42.040Z,5.25
2023-02-22T18:51:11.635Z,5.15
2023-02-22T18:53:41.041Z,5.00
2023-02-22T18:56:11.259Z,4.68
2023-02-22T18:58:38.978Z,4.88
2023-02-22T19:01:07.347Z,4.85
2023-02-22T19:03:38.224Z,5.05
2023-02-22T19:06:08.865Z,5.10
2023-02-22T19:08:40.838Z,4.97
2023-02-22T19:11:10.462Z,4.95
2023-02-22T19:13:38.296Z,4.97
2023-02-22T19:16:07.320Z,5.57
2023-02-22T19:18:34.282Z,5.60
2023-02-22T19:21:03.336Z,5.35
2023-02-22T19:23:34.379Z,5.60
2023-02-22T19:26:03.179Z,5.75
2023-02-22T19:28:34.134Z,5.43
2023-02-22T19:31:34.262Z,5.53
2023-02-22T19:34:11.124Z,5.50
2023-02-22T19:36:40.332Z,6.07
2023-02-22T19:39:08.486Z,6.83
2023-02-22T19:41:35.305Z,6.97
2023-02-22T19:44:02.680Z,7.78
2023-02-22T19:46:29.479Z,7.80
2023-02-22T19:48:57.074Z,6.50
2023-02-22T19:51:27.801Z,6.63
2023-02-22T19:54:06.214Z,6.53
2023-02-22T19:56:35.428Z,7.43
2023-02-22T19:59:13.653Z,8.07
2023-02-22T20:01:44.373Z,7.78
2023-02-22T20:04:18.250Z,7.25
2023-02-22T20:06:46.760Z,7.97
2023-02-22T20:09:23.610Z,8.23
2023-02-22T20:11:54.299Z,8.35
2023-02-22T20:14:28.459Z,8.45
2023-02-22T20:16:56.570Z,9.07
2023-02-22T20:19:24.438Z,8.68
2023-02-22T20:21:52.446Z,9.20
2023-02-22T20:24:19.512Z,9.73
2023-02-22T20:26:47.353Z,8.90
2023-02-22T20:29:15.364Z,9.75
2023-02-22T20:31:43.410Z,9.93
2023-02-22T20:34:11.486Z,10.07
2023-02-22T20:36:40.328Z,11.00
2023-02-22T20:39:13.377Z,9.82
2023-02-22T20:41:44.909Z,10.43
2023-02-22T20:44:15.230Z,10.07
2023-02-22T20:46:43.364Z,10.82
2023-02-22T20:49:12.993Z,11.13
2023-02-22T20:51:40.959Z,10.15
2023-02-22T20:54:11.601Z,10.38
2023-02-22T20:56:40.899Z,9.93
2023-02-22T20:59:10.664Z,11.38
2023-02-22T21:01:37.461Z,11.52
2023-02-22T21:04:06.436Z,11.18
2023-02-22T21:06:35.640Z,11.40
2023-02-22T21:09:05.254Z,10.77
2023-02-22T21:11:32.181Z,11.00
2023-02-22T21:14:00.189Z,10.80
2023-02-22T21:16:29.621Z,10.63
2023-02-22T21:18:58.908Z,10.90
2023-02-22T21:21:26.992Z,11.02
2023-02-22T21:23:56.279Z,10.70
2023-02-22T21:26:27.539Z,11.13
2023-02-22T21:28:55.356Z,11.77
2023-02-22T21:31:24.618Z,9.93
2023-02-22T21:33:53.986Z,9.85
2023-02-22T21:36:25.297Z,10.47
2023-02-22T21:38:55.327Z,10.88
2023-02-22T21:41:27.468Z,11.20
2023-02-22T21:43:56.465Z,10.57
2023-02-22T21:46:25.023Z,11.10
2023-02-22T21:48:51.865Z,10.88
2023-02-22T21:51:21.652Z,11.68
2023-02-22T21:53:52.181Z,10.63
2023-02-22T21:56:24.362Z,11.13
2023-02-22T21:59:03.007Z,11.50
2023-02-22T22:01:35.781Z,11.13
2023-02-22T22:04:04.030Z,10.95
2023-02-22T22:06:33.217Z,11.23
2023-02-22T22:09:00.563Z,11.20
2023-02-22T22:11:27.557Z,10.77
2023-02-22T22:13:58.854Z,11.18
2023-02-22T22:16:29.849Z,11.30
2023-02-22T22:18:57.083Z,11.63
2023-02-22T22:21:24.580Z,11.52
2023-02-22T22:23:56.064Z,11.38
2023-02-22T22:26:24.664Z,11.18
2023-02-22T22:28:54.810Z,11.93
2023-02-22T22:31:24.013Z,12.27
2023-02-22T22:33:50.948Z,12.65
2023-02-22T22:36:21.487Z,12.15
2023-02-22T22:38:49.293Z,11.37
2023-02-22T22:41:19.255Z,11.10
2023-02-22T22:43:47.182Z,11.73
2023-02-22T22:46:16.811Z,11.68
2023-02-22T22:48:47.015Z,11.35
2023-02-22T22:51:22.058Z,11.70
2023-02-22T22:53:50.169Z,11.70
2023-02-22T22:56:35.197Z,11.68
2023-02-22T22:59:07.833Z,11.73
2023-02-22T23:01:44.530Z,11.50
2023-02-22T23:04:16.568Z,12.63
2023-02-22T23:06:51.809Z,12.15
2023-02-22T23:09:31.566Z,12.80
2023-02-22T23:12:08.861Z,13.38
2023-02-22T23:14:38.573Z,12.70
2023-02-22T23:17:26.837Z,13.45
2023-02-22T23:19:53.687Z,12.88
2023-02-22T23:22:21.271Z,12.55
2023-02-22T23:24:48.483Z,12.60
2023-02-22T23:27:15.464Z,13.13
2023-02-22T23:29:42.892Z,13.48
2023-02-22T23:32:09.882Z,13.38
2023-02-22T23:34:41.107Z,13.38
2023-02-22T23:37:10.461Z,13.15
2023-02-22T23:39:38.052Z,14.00
2023-02-22T23:42:04.943Z,13.98
2023-02-22T23:44:31.852Z,13.10
2023-02-22T23:46:58.771Z,13.55
2023-02-22T23:49:27.779Z,14.30
2023-02-22T23:51:54.932Z,15.20
2023-02-22T23:54:24.486Z,14.63
2023-02-22T23:56:58.294Z,13.23
2023-02-22T23:59:26.750Z,14.23
